sensor_id;sensor_type;location;lat;lon;timestamp;pressure;altitude;pressure_sealevel;temperature;humidity
24825;BME280;12910;57.690;11.974;2023-04-10T00:00:48;101790.69;;;5.61;100.00
24825;BME280;12910;57.690;11.974;2023-04-10T00:03:17;101796.97;;;5.53;100.00
24825;BME280;12910;57.690;11.974;2023-04-10T00:05:43;101795.06;;;5.49;100.00
24825;BME280;12910;57.690;11.974;2023-04-10T00:08:08;101757.94;;;5.21;100.00
24825;BME280;12910;57.690;11.974;2023-04-10T00:10:34;101794.56;;;5.40;100.00
24825;BME280;12910;57.690;11.974;2023-04-10T00:12:59;101794.38;;;5.37;100.00
24825;BME280;12910;57.690;11.974;2023-04-10T00:15:27;101795.00;;;5.33;100.00
24825;BME280;12910;57.690;11.974;2023-04-10T00:17:52;101791.50;;;5.30;100.00
24825;BME280;12910;57.690;11.974;2023-04-10T00:20:20;101791.69;;;5.34;100.00
24825;BME280;12910;57.690;11.974;2023-04-10T00:22:46;101785.63;;;5.32;100.00
24825;BME280;12910;57.690;11.974;2023-04-10T00:25:12;101795.00;;;5.18;100.00
24825;BME280;12910;57.690;11.974;2023-04-10T00:27:37;101793.97;;;5.14;100.00
24825;BME280;12910;57.690;11.974;2023-04-10T00:30:03;101789.22;;;5.20;100.00
24825;BME280;12910;57.690;11.974;2023-04-10T00:32:28;101790.78;;;5.18;100.00
24825;BME280;12910;57.690;11.974;2023-04-10T00:34:53;101788.50;;;5.08;100.00
24825;BME280;12910;57.690;11.974;2023-04-10T00:37:19;101795.78;;;5.02;100.00
24825;BME280;12910;57.690;11.974;2023-04-10T00:39:44;101799.91;;;4.99;100.00
24825;BME280;12910;57.690;11.974;2023-04-10T00:42:10;101812.78;;;5.03;100.00
24825;BME280;12910;57.690;11.974;2023-04-10T00:44:36;101818.47;;;4.98;100.00
24825;BME280;12910;57.690;11.974;2023-04-10T00:47:03;101809.28;;;5.01;100.00
24825;BME280;12910;57.690;11.974;2023-04-10T00:49:29;101813.66;;;5.03;100.00
24825;BME280;12910;57.690;11.974;2023-04-10T00:51:55;101819.63;;;5.04;100.00
24825;BME280;12910;57.690;11.974;2023-04-10T00:54:21;101822.19;;;5.04;100.00
24825;BME280;12910;57.690;11.974;2023-04-10T00:56:48;101811.47;;;4.94;100.00
24825;BME280;12910;57.690;11.974;2023-04-10T00:59:14;101816.19;;;5.03;100.00
24825;BME280;12910;57.690;11.974;2023-04-10T01:01:40;101805.50;;;5.09;100.00
24825;BME280;12910;57.690;11.974;2023-04-10T01:04:06;101804.91;;;5.13;100.00
24825;BME280;12910;57.690;11.974;2023-04-10T01:12:10;101811.19;;;5.20;100.00
24825;BME280;12910;57.690;11.974;2023-04-10T01:20:09;101819.28;;;5.27;100.00
24825;BME280;12910;57.690;11.974;2023-04-10T01:30:45;101816.91;;;5.30;100.00
24825;BME280;12910;57.690;11.974;2023-04-10T01:33:14;101823.91;;;5.35;100.00
24825;BME280;12910;57.690;11.974;2023-04-10T01:35:42;101818.81;;;5.35;100.00
24825;BME280;12910;57.690;11.974;2023-04-10T01:38:09;101822.25;;;5.35;100.00
24825;BME280;12910;57.690;11.974;2023-04-10T01:40:38;101827.28;;;5.34;100.00
24825;BME280;12910;57.690;11.974;2023-04-10T01:43:05;101827.00;;;5.29;100.00
24825;BME280;12910;57.690;11.974;2023-04-10T01:45:33;101825.53;;;5.33;100.00
24825;BME280;12910;57.690;11.974;2023-04-10T01:47:59;101812.88;;;5.19;100.00
24825;BME280;12910;57.690;11.974;2023-04-10T01:50:26;101821.63;;;5.24;100.00
24825;BME280;12910;57.690;11.974;2023-04-10T01:52:53;101814.97;;;5.26;100.00
24825;BME280;12910;57.690;11.974;2023-04-10T01:55:23;101814.13;;;5.26;100.00
24825;BME280;12910;57.690;11.974;2023-04-10T01:57:49;101817.25;;;5.22;100.00
24825;BME280;12910;57.690;11.974;2023-04-10T02:00:15;101811.13;;;5.18;100.00
24825;BME280;12910;57.690;11.974;2023-04-10T02:02:42;101802.53;;;5.16;100.00
24825;BME280;12910;57.690;11.974;2023-04-10T02:05:08;101808.59;;;5.18;100.00
24825;BME280;12910;57.690;11.974;2023-04-10T02:07:49;101803.31;;;5.15;100.00
24825;BME280;12910;57.690;11.974;2023-04-10T02:10:24;101811.91;;;5.17;100.00
24825;BME280;12910;57.690;11.974;2023-04-10T02:13:04;101812.53;;;5.13;100.00
24825;BME280;12910;57.690;11.974;2023-04-10T02:15:30;101806.28;;;5.08;100.00
24825;BME280;12910;57.690;11.974;2023-04-10T02:17:57;101807.88;;;5.06;100.00
24825;BME280;12910;57.690;11.974;2023-04-10T02:20:24;101806.41;;;5.09;100.00
24825;BME280;12910;57.690;11.974;2023-04-10T02:22:51;101798.06;;;5.12;100.00
24825;BME280;12910;57.690;11.974;2023-04-10T02:25:17;101798.06;;;5.12;100.00
24825;BME280;12910;57.690;11.974;2023-04-10T02:27:43;101803.31;;;5.15;100.00
24825;BME280;12910;57.690;11.974;2023-04-10T02:30:09;101801.41;;;5.11;100.00
24825;BME280;12910;57.690;11.974;2023-04-10T02:32:35;101796.91;;;5.07;100.00
24825;BME280;12910;57.690;11.974;2023-04-10T02:35:01;101795.97;;;5.05;100.00
24825;BME280;12910;57.690;11.974;2023-04-10T02:37:27;101799.13;;;5.01;100.00
24825;BME280;12910;57.690;11.974;2023-04-10T02:39:52;101799.72;;;4.96;100.00
24825;BME280;12910;57.690;11.974;2023-04-10T02:42:19;101792.19;;;4.98;100.00
24825;BME280;12910;57.690;11.974;2023-04-10T02:44:46;101766.41;;;4.92;100.00
24825;BME280;12910;57.690;11.974;2023-04-10T02:47:11;101779.75;;;5.03;100.00
24825;BME280;12910;57.690;11.974;2023-04-10T02:49:37;101779.75;;;5.03;100.00
24825;BME280;12910;57.690;11.974;2023-04-10T02:52:02;101776.06;;;4.97;100.00
24825;BME280;12910;57.690;11.974;2023-04-10T02:54:28;101773.50;;;4.97;100.00
24825;BME280;12910;57.690;11.974;2023-04-10T02:56:55;101771.16;;;5.01;100.00
24825;BME280;12910;57.690;11.974;2023-04-10T02:59:22;101782.09;;;4.99;100.00
24825;BME280;12910;57.690;11.974;2023-04-10T03:01:47;101769.22;;;4.96;100.00
24825;BME280;12910;57.690;11.974;2023-04-10T03:04:13;101764.66;;;4.91;100.00
24825;BME280;12910;57.690;11.974;2023-04-10T03:06:38;101751.00;;;4.89;100.00
24825;BME280;12910;57.690;11.974;2023-04-10T03:09:04;101747.25;;;4.97;100.00
24825;BME280;12910;57.690;11.974;2023-04-10T03:11:30;101757.59;;;5.00;100.00
24825;BME280;12910;57.690;11.974;2023-04-10T03:13:55;101754.94;;;4.98;100.00
24825;BME280;12910;57.690;11.974;2023-04-10T03:16:22;101754.88;;;4.97;100.00
24825;BME280;12910;57.690;11.974;2023-04-10T03:18:47;101759.06;;;4.96;100.00
24825;BME280;12910;57.690;11.974;2023-04-10T03:21:13;101754.50;;;4.91;100.00
24825;BME280;12910;57.690;11.974;2023-04-10T03:23:38;101758.78;;;4.92;100.00
24825;BME280;12910;57.690;11.974;2023-04-10T03:26:04;101752.06;;;4.92;100.00
24825;BME280;12910;57.690;11.974;2023-04-10T03:28:29;101764.84;;;4.94;100.00
24825;BME280;12910;57.690;11.974;2023-04-10T03:30:56;101758.63;;;4.89;100.00
24825;BME280;12910;57.690;11.974;2023-04-10T03:33:22;101754.22;;;4.86;100.00
24825;BME280;12910;57.690;11.974;2023-04-10T03:35:47;101756.63;;;4.83;100.00
24825;BME280;12910;57.690;11.974;2023-04-10T03:38:13;101744.63;;;4.80;100.00
24825;BME280;12910;57.690;11.974;2023-04-10T03:40:38;101740.31;;;4.79;100.00
24825;BME280;12910;57.690;11.974;2023-04-10T03:43:03;101735.41;;;4.82;100.00
24825;BME280;12910;57.690;11.974;2023-04-10T03:45:29;101732.00;;;4.82;100.00
24825;BME280;12910;57.690;11.974;2023-04-10T03:47:54;101724.09;;;4.77;100.00
24825;BME280;12910;57.690;11.974;2023-04-10T03:50:20;101726.84;;;4.80;100.00
24825;BME280;12910;57.690;11.974;2023-04-10T03:52:45;101725.75;;;4.77;100.00
24825;BME280;12910;57.690;11.974;2023-04-10T03:55:11;101720.34;;;4.71;100.00
24825;BME280;12910;57.690;11.974;2023-04-10T03:57:36;101724.72;;;4.73;100.00
24825;BME280;12910;57.690;11.974;2023-04-10T04:00:02;101728.94;;;4.73;100.00
24825;BME280;12910;57.690;11.974;2023-04-10T04:02:28;101721.56;;;4.62;100.00
24825;BME280;12910;57.690;11.974;2023-04-10T04:04:53;101720.59;;;4.60;100.00
24825;BME280;12910;57.690;11.974;2023-04-10T04:07:19;101704.03;;;4.52;100.00
24825;BME280;12910;57.690;11.974;2023-04-10T04:09:44;101715.25;;;4.56;100.00
24825;BME280;12910;57.690;11.974;2023-04-10T04:12:10;101712.16;;;4.46;100.00
24825;BME280;12910;57.690;11.974;2023-04-10T04:14:35;101700.38;;;4.47;100.00
24825;BME280;12910;57.690;11.974;2023-04-10T04:17:01;101698.69;;;4.47;100.00
24825;BME280;12910;57.690;11.974;2023-04-10T04:19:26;101688.25;;;4.43;100.00
24825;BME280;12910;57.690;11.974;2023-04-10T04:21:51;101691.59;;;4.42;100.00
24825;BME280;12910;57.690;11.974;2023-04-10T04:24:17;101677.06;;;4.39;100.00
24825;BME280;12910;57.690;11.974;2023-04-10T04:26:42;101691.16;;;4.49;100.00
24825;BME280;12910;57.690;11.974;2023-04-10T04:29:07;101693.00;;;4.51;100.00
24825;BME280;12910;57.690;11.974;2023-04-10T04:31:33;101684.50;;;4.51;100.00
24825;BME280;12910;57.690;11.974;2023-04-10T04:33:58;101683.53;;;4.49;100.00
24825;BME280;12910;57.690;11.974;2023-04-10T04:36:24;101693.59;;;4.47;100.00
24825;BME280;12910;57.690;11.974;2023-04-10T04:38:50;101691.78;;;4.45;100.00
24825;BME280;12910;57.690;11.974;2023-04-10T04:41:15;101689.13;;;4.43;100.00
24825;BME280;12910;57.690;11.974;2023-04-10T04:43:41;101692.63;;;4.45;100.00
24825;BME280;12910;57.690;11.974;2023-04-10T04:46:06;101695.34;;;4.33;100.00
24825;BME280;12910;57.690;11.974;2023-04-10T04:48:33;101695.34;;;4.33;100.00
24825;BME280;12910;57.690;11.974;2023-04-10T04:50:59;101690.19;;;4.32;100.00
24825;BME280;12910;57.690;11.974;2023-04-10T04:53:24;101688.44;;;4.31;100.00
24825;BME280;12910;57.690;11.974;2023-04-10T04:55:49;101689.28;;;4.31;100.00
24825;BME280;12910;57.690;11.974;2023-04-10T04:58:15;101695.41;;;4.35;100.00
24825;BME280;12910;57.690;11.974;2023-04-10T05:00:40;101697.16;;;4.36;100.00
24825;BME280;12910;57.690;11.974;2023-04-10T05:03:05;101685.97;;;4.32;100.00
24825;BME280;12910;57.690;11.974;2023-04-10T05:05:31;101703.56;;;4.44;100.00
24825;BME280;12910;57.690;11.974;2023-04-10T05:07:56;101695.69;;;4.40;100.00
24825;BME280;12910;57.690;11.974;2023-04-10T05:10:21;101689.81;;;4.41;100.00
24825;BME280;12910;57.690;11.974;2023-04-10T05:12:47;101697.81;;;4.47;100.00
24825;BME280;12910;57.690;11.974;2023-04-10T05:15:12;101691.38;;;4.39;100.00
24825;BME280;12910;57.690;11.974;2023-04-10T05:17:37;101704.34;;;4.43;100.00
24825;BME280;12910;57.690;11.974;2023-04-10T05:20:03;101687.56;;;4.45;100.00
24825;BME280;12910;57.690;11.974;2023-04-10T05:22:29;101700.38;;;4.47;100.00
24825;BME280;12910;57.690;11.974;2023-04-10T05:24:55;101699.81;;;4.52;100.00
24825;BME280;12910;57.690;11.974;2023-04-10T05:27:20;101691.06;;;4.47;100.00
24825;BME280;12910;57.690;11.974;2023-04-10T05:29:46;101682.75;;;4.50;100.00
24825;BME280;12910;57.690;11.974;2023-04-10T05:32:12;101682.22;;;4.56;100.00
24825;BME280;12910;57.690;11.974;2023-04-10T05:34:37;101678.19;;;4.59;100.00
24825;BME280;12910;57.690;11.974;2023-04-10T05:37:02;101679.00;;;4.58;100.00
24825;BME280;12910;57.690;11.974;2023-04-10T05:39:28;101682.50;;;4.60;100.00
24825;BME280;12910;57.690;11.974;2023-04-10T05:41:53;101679.38;;;4.64;100.00
24825;BME280;12910;57.690;11.974;2023-04-10T05:44:18;101679.63;;;4.69;100.00
24825;BME280;12910;57.690;11.974;2023-04-10T05:46:44;101686.88;;;4.78;100.00
24825;BME280;12910;57.690;11.974;2023-04-10T05:49:09;101677.50;;;4.77;100.00
24825;BME280;12910;57.690;11.974;2023-04-10T05:51:35;101676.03;;;4.80;100.00
24825;BME280;12910;57.690;11.974;2023-04-10T05:54:00;101675.34;;;4.83;100.00
24825;BME280;12910;57.690;11.974;2023-04-10T05:56:25;101674.88;;;4.90;100.00
24825;BME280;12910;57.690;11.974;2023-04-10T05:58:51;101657.69;;;4.86;100.00
24825;BME280;12910;57.690;11.974;2023-04-10T06:01:16;101660.41;;;4.89;100.00
24825;BME280;12910;57.690;11.974;2023-04-10T06:03:41;101659.63;;;4.90;100.00
24825;BME280;12910;57.690;11.974;2023-04-10T06:06:07;101662.19;;;4.90;100.00
24825;BME280;12910;57.690;11.974;2023-04-10T06:08:32;101658.22;;;4.95;100.00
24825;BME280;12910;57.690;11.974;2023-04-10T06:10:58;101648.69;;;4.91;100.00
24825;BME280;12910;57.690;11.974;2023-04-10T06:13:24;101643.59;;;4.91;100.00
24825;BME280;12910;57.690;11.974;2023-04-10T06:15:51;101651.22;;;4.91;100.00
24825;BME280;12910;57.690;11.974;2023-04-10T06:18:16;101646.47;;;4.97;100.00
24825;BME280;12910;57.690;11.974;2023-04-10T06:20:42;101644.31;;;5.04;100.00
24825;BME280;12910;57.690;11.974;2023-04-10T06:23:07;101641.13;;;5.08;100.00
24825;BME280;12910;57.690;11.974;2023-04-10T06:25:32;101649.53;;;5.07;100.00
24825;BME280;12910;57.690;11.974;2023-04-10T06:27:58;101640.34;;;5.09;100.00
24825;BME280;12910;57.690;11.974;2023-04-10T06:30:23;101631.84;;;5.08;100.00
24825;BME280;12910;57.690;11.974;2023-04-10T06:32:49;101636.53;;;5.17;100.00
24825;BME280;12910;57.690;11.974;2023-04-10T06:35:14;101639.88;;;5.16;100.00
24825;BME280;12910;57.690;11.974;2023-04-10T06:37:39;101636.72;;;5.20;100.00
24825;BME280;12910;57.690;11.974;2023-04-10T06:40:06;101644.84;;;5.29;100.00
24825;BME280;12910;57.690;11.974;2023-04-10T06:42:32;101648.41;;;5.33;100.00
24825;BME280;12910;57.690;11.974;2023-04-10T06:44:57;101644.56;;;5.40;100.00
24825;BME280;12910;57.690;11.974;2023-04-10T06:47:23;101642.19;;;5.43;100.00
24825;BME280;12910;57.690;11.974;2023-04-10T06:49:48;101636.28;;;5.44;100.00
24825;BME280;12910;57.690;11.974;2023-04-10T06:52:14;101636.53;;;5.49;100.00
24825;BME280;12910;57.690;11.974;2023-04-10T06:54:39;101634.88;;;5.49;100.00
24825;BME280;12910;57.690;11.974;2023-04-10T06:57:05;101629.97;;;5.52;100.00
24825;BME280;12910;57.690;11.974;2023-04-10T06:59:31;101628.53;;;5.57;100.00
24825;BME280;12910;57.690;11.974;2023-04-10T07:01:58;101630.53;;;5.63;100.00
24825;BME280;12910;57.690;11.974;2023-04-10T07:04:23;101626.63;;;5.70;100.00
24825;BME280;12910;57.690;11.974;2023-04-10T07:06:48;101632.19;;;5.79;100.00
24825;BME280;12910;57.690;11.974;2023-04-10T07:09:14;101630.63;;;5.81;100.00
24825;BME280;12910;57.690;11.974;2023-04-10T07:11:39;101634.44;;;5.89;100.00
24825;BME280;12910;57.690;11.974;2023-04-10T07:14:05;101626.31;;;5.97;100.00
24825;BME280;12910;57.690;11.974;2023-04-10T07:16:30;101628.41;;;6.04;100.00
24825;BME280;12910;57.690;11.974;2023-04-10T07:18:56;101619.47;;;6.12;100.00
24825;BME280;12910;57.690;11.974;2023-04-10T07:21:22;101617.03;;;6.14;100.00
24825;BME280;12910;57.690;11.974;2023-04-10T07:23:47;101630.34;;;6.26;100.00
24825;BME280;12910;57.690;11.974;2023-04-10T07:26:13;101620.56;;;6.34;100.00
24825;BME280;12910;57.690;11.974;2023-04-10T07:28:39;101605.84;;;6.28;100.00
24825;BME280;12910;57.690;11.974;2023-04-10T07:31:05;101617.50;;;6.41;100.00
24825;BME280;12910;57.690;11.974;2023-04-10T07:33:32;101614.97;;;6.41;100.00
24825;BME280;12910;57.690;11.974;2023-04-10T07:35:57;101600.63;;;6.43;100.00
24825;BME280;12910;57.690;11.974;2023-04-10T07:38:23;101599.06;;;6.45;100.00
24825;BME280;12910;57.690;11.974;2023-04-10T07:40:48;101602.22;;;6.41;100.00
24825;BME280;12910;57.690;11.974;2023-04-10T07:43:14;101613.75;;;6.51;100.00
24825;BME280;12910;57.690;11.974;2023-04-10T07:45:40;101601.09;;;6.52;100.00
24825;BME280;12910;57.690;11.974;2023-04-10T07:48:05;101611.72;;;6.62;100.00
24825;BME280;12910;57.690;11.974;2023-04-10T07:50:31;101600.69;;;6.61;100.00
24825;BME280;12910;57.690;11.974;2023-04-10T07:52:56;101598.47;;;6.69;100.00
24825;BME280;12910;57.690;11.974;2023-04-10T07:55:21;101594.56;;;6.76;100.00
24825;BME280;12910;57.690;11.974;2023-04-10T07:57:47;101593.97;;;6.81;100.00
24825;BME280;12910;57.690;11.974;2023-04-10T08:00:13;101592.81;;;6.93;100.00
24825;BME280;12910;57.690;11.974;2023-04-10T08:02:38;101600.66;;;6.97;100.00
24825;BME280;12910;57.690;11.974;2023-04-10T08:05:05;101586.53;;;7.04;100.00
24825;BME280;12910;57.690;11.974;2023-04-10T08:07:31;101590.16;;;7.09;100.00
24825;BME280;12910;57.690;11.974;2023-04-10T08:09:56;101583.63;;;7.14;100.00
24825;BME280;12910;57.690;11.974;2023-04-10T08:12:22;101583.72;;;7.17;100.00
24825;BME280;12910;57.690;11.974;2023-04-10T08:14:47;101580.47;;;7.20;100.00
24825;BME280;12910;57.690;11.974;2023-04-10T08:17:13;101574.41;;;7.18;100.00
24825;BME280;12910;57.690;11.974;2023-04-10T08:19:40;101567.38;;;7.12;100.00
24825;BME280;12910;57.690;11.974;2023-04-10T08:22:06;101570.34;;;7.22;100.00
24825;BME280;12910;57.690;11.974;2023-04-10T08:24:31;101570.69;;;7.29;100.00
24825;BME280;12910;57.690;11.974;2023-04-10T08:26:57;101566.72;;;7.36;100.00
24825;BME280;12910;57.690;11.974;2023-04-10T08:29:22;101560.69;;;7.34;100.00
24825;BME280;12910;57.690;11.974;2023-04-10T08:31:47;101562.66;;;7.40;100.00
24825;BME280;12910;57.690;11.974;2023-04-10T08:34:13;101554.91;;;7.38;100.00
24825;BME280;12910;57.690;11.974;2023-04-10T08:36:39;101552.69;;;7.46;100.00
24825;BME280;12910;57.690;11.974;2023-04-10T08:39:04;101548.66;;;7.51;100.00
24825;BME280;12910;57.690;11.974;2023-04-10T08:41:30;101543.75;;;7.56;100.00
24825;BME280;12910;57.690;11.974;2023-04-10T08:43:56;101557.59;;;7.61;100.00
24825;BME280;12910;57.690;11.974;2023-04-10T08:46:22;101548.34;;;7.63;100.00
24825;BME280;12910;57.690;11.974;2023-04-10T08:49:16;101551.53;;;7.78;100.00
24825;BME280;12910;57.690;11.974;2023-04-10T08:51:56;101535.69;;;7.86;100.00
24825;BME280;12910;57.690;11.974;2023-04-10T08:54:32;101537.81;;;7.96;100.00
24825;BME280;12910;57.690;11.974;2023-04-10T08:56:57;101531.22;;;8.01;100.00
24825;BME280;12910;57.690;11.974;2023-04-10T08:59:26;101535.78;;;8.08;100.00
24825;BME280;12910;57.690;11.974;2023-04-10T09:01:52;101524.81;;;8.11;100.00
24825;BME280;12910;57.690;11.974;2023-04-10T09:04:18;101524.94;;;8.14;100.00
24825;BME280;12910;57.690;11.974;2023-04-10T09:06:43;101529.53;;;8.23;100.00
24825;BME280;12910;57.690;11.974;2023-04-10T09:09:08;101519.31;;;8.23;100.00
24825;BME280;12910;57.690;11.974;2023-04-10T09:14:25;101519.16;;;8.39;100.00
24825;BME280;12910;57.690;11.974;2023-04-10T09:16:52;101515.81;;;8.42;99.72
24825;BME280;12910;57.690;11.974;2023-04-10T09:19:32;101517.63;;;8.45;99.81
24825;BME280;12910;57.690;11.974;2023-04-10T09:21:58;101510.91;;;8.47;99.79
24825;BME280;12910;57.690;11.974;2023-04-10T09:24:23;101509.41;;;8.52;96.69
24825;BME280;12910;57.690;11.974;2023-04-10T09:26:49;101502.06;;;8.60;96.71
24825;BME280;12910;57.690;11.974;2023-04-10T09:29:14;101495.31;;;8.62;97.44
24825;BME280;12910;57.690;11.974;2023-04-10T09:31:41;101487.84;;;8.66;99.10
24825;BME280;12910;57.690;11.974;2023-04-10T09:34:21;101488.00;;;8.71;95.52
24825;BME280;12910;57.690;11.974;2023-04-10T09:36:54;101482.13;;;8.73;97.50
24825;BME280;12910;57.690;11.974;2023-04-10T09:39:21;101484.69;;;8.73;98.88
24825;BME280;12910;57.690;11.974;2023-04-10T09:41:52;101484.00;;;8.78;97.16
24825;BME280;12910;57.690;11.974;2023-04-10T09:44:30;101473.19;;;8.85;94.78
24825;BME280;12910;57.690;11.974;2023-04-10T09:47:16;101466.72;;;8.95;90.69
24825;BME280;12910;57.690;11.974;2023-04-10T09:52:26;101462.59;;;8.98;87.01
24825;BME280;12910;57.690;11.974;2023-04-10T09:55:02;101453.41;;;9.03;86.12
24825;BME280;12910;57.690;11.974;2023-04-10T09:57:31;101450.00;;;9.03;79.88
24825;BME280;12910;57.690;11.974;2023-04-10T09:59:58;101460.59;;;9.14;75.79
24825;BME280;12910;57.690;11.974;2023-04-10T10:02:25;101446.09;;;9.14;74.08
24825;BME280;12910;57.690;11.974;2023-04-10T10:04:52;101447.31;;;9.24;72.81
24825;BME280;12910;57.690;11.974;2023-04-10T10:07:20;101434.63;;;9.27;70.70
24825;BME280;12910;57.690;11.974;2023-04-10T10:09:47;101434.03;;;9.34;69.38
24825;BME280;12910;57.690;11.974;2023-04-10T10:12:15;101430.84;;;9.42;64.90
24825;BME280;12910;57.690;11.974;2023-04-10T10:17:38;101421.91;;;9.55;69.59
24825;BME280;12910;57.690;11.974;2023-04-10T10:20:09;101429.94;;;9.65;69.70
24825;BME280;12910;57.690;11.974;2023-04-10T10:22:36;101417.22;;;9.69;69.37
24825;BME280;12910;57.690;11.974;2023-04-10T10:25:02;101418.19;;;9.72;71.30
24825;BME280;12910;57.690;11.974;2023-04-10T10:27:35;101406.31;;;9.74;72.33
24825;BME280;12910;57.690;11.974;2023-04-10T10:30:02;101404.72;;;9.78;70.65
24825;BME280;12910;57.690;11.974;2023-04-10T10:32:28;101398.06;;;9.83;70.59
24825;BME280;12910;57.690;11.974;2023-04-10T10:34:54;101391.31;;;9.85;72.16
24825;BME280;12910;57.690;11.974;2023-04-10T10:37:22;101386.38;;;9.91;75.72
24825;BME280;12910;57.690;11.974;2023-04-10T10:40:03;101389.19;;;9.99;71.49
24825;BME280;12910;57.690;11.974;2023-04-10T10:42:56;101383.47;;;10.08;69.95
24825;BME280;12910;57.690;11.974;2023-04-10T10:45:52;101386.09;;;10.09;70.87
24825;BME280;12910;57.690;11.974;2023-04-10T10:48:18;101378.63;;;10.17;69.51
24825;BME280;12910;57.690;11.974;2023-04-10T10:50:50;101364.13;;;10.18;69.38
24825;BME280;12910;57.690;11.974;2023-04-10T10:55:55;101374.28;;;10.14;69.21
24825;BME280;12910;57.690;11.974;2023-04-10T10:58:54;101361.44;;;10.13;68.54
24825;BME280;12910;57.690;11.974;2023-04-10T11:01:22;101352.16;;;10.17;68.22
24825;BME280;12910;57.690;11.974;2023-04-10T11:03:49;101347.03;;;10.17;67.99
24825;BME280;12910;57.690;11.974;2023-04-10T11:06:16;101340.28;;;10.20;67.51
24825;BME280;12910;57.690;11.974;2023-04-10T11:08:50;101341.22;;;10.22;67.81
24825;BME280;12910;57.690;11.974;2023-04-10T11:11:21;101329.22;;;10.21;67.82
24825;BME280;12910;57.690;11.974;2023-04-10T11:16:42;101311.31;;;10.23;70.06
24825;BME280;12910;57.690;11.974;2023-04-10T11:19:11;101321.66;;;10.26;69.76
24825;BME280;12910;57.690;11.974;2023-04-10T11:24:25;101307.00;;;10.51;69.06
24825;BME280;12910;57.690;11.974;2023-04-10T11:26:50;101298.00;;;10.65;69.26
24825;BME280;12910;57.690;11.974;2023-04-10T11:31:45;101295.81;;;10.79;68.76
24825;BME280;12910;57.690;11.974;2023-04-10T11:34:12;101293.38;;;10.84;67.83
24825;BME280;12910;57.690;11.974;2023-04-10T11:36:42;101278.81;;;10.83;68.30
24825;BME280;12910;57.690;11.974;2023-04-10T11:39:10;101284.75;;;10.82;66.87
24825;BME280;12910;57.690;11.974;2023-04-10T11:41:40;101277.91;;;10.82;68.13
24825;BME280;12910;57.690;11.974;2023-04-10T11:44:08;101268.06;;;10.98;68.56
24825;BME280;12910;57.690;11.974;2023-04-10T11:46:38;101265.63;;;11.02;68.46
24825;BME280;12910;57.690;11.974;2023-04-10T11:49:05;101256.22;;;11.03;67.96
24825;BME280;12910;57.690;11.974;2023-04-10T11:51:31;101231.28;;;10.97;68.05
24825;BME280;12910;57.690;11.974;2023-04-10T11:54:10;101252.19;;;11.13;68.17
24825;BME280;12910;57.690;11.974;2023-04-10T11:56:41;101245.44;;;11.18;67.04
24825;BME280;12910;57.690;11.974;2023-04-10T11:59:07;101244.72;;;11.22;68.13
24825;BME280;12910;57.690;11.974;2023-04-10T12:01:41;101232.84;;;11.27;66.00
24825;BME280;12910;57.690;11.974;2023-04-10T12:04:20;101229.69;;;11.39;65.00
24825;BME280;12910;57.690;11.974;2023-04-10T12:06:47;101224.69;;;11.45;64.20
24825;BME280;12910;57.690;11.974;2023-04-10T12:09:15;101221.50;;;11.56;64.58
24825;BME280;12910;57.690;11.974;2023-04-10T12:11:55;101209.66;;;11.62;64.13
24825;BME280;12910;57.690;11.974;2023-04-10T12:14:22;101211.44;;;11.66;64.75
24825;BME280;12910;57.690;11.974;2023-04-10T12:16:49;101205.69;;;11.78;64.56
24825;BME280;12910;57.690;11.974;2023-04-10T12:19:15;101196.47;;;11.87;61.36
24825;BME280;12910;57.690;11.974;2023-04-10T12:21:43;101199.09;;;11.90;62.85
24825;BME280;12910;57.690;11.974;2023-04-10T12:24:10;101202.78;;;12.01;62.81
24825;BME280;12910;57.690;11.974;2023-04-10T12:26:36;101197.03;;;12.14;62.62
24825;BME280;12910;57.690;11.974;2023-04-10T12:29:01;101197.94;;;12.17;61.68
24825;BME280;12910;57.690;11.974;2023-04-10T12:31:31;101187.78;;;12.23;60.10
24825;BME280;12910;57.690;11.974;2023-04-10T12:33:57;101194.72;;;12.28;61.50
24825;BME280;12910;57.690;11.974;2023-04-10T12:36:25;101185.25;;;12.26;60.73
24825;BME280;12910;57.690;11.974;2023-04-10T12:38:58;101183.44;;;12.20;59.95
24825;BME280;12910;57.690;11.974;2023-04-10T12:41:27;101174.75;;;12.13;60.98
24825;BME280;12910;57.690;11.974;2023-04-10T12:44:06;101175.69;;;12.19;59.55
24825;BME280;12910;57.690;11.974;2023-04-10T12:46:31;101166.31;;;12.21;59.84
24825;BME280;12910;57.690;11.974;2023-04-10T12:49:08;101167.44;;;12.35;60.57
24825;BME280;12910;57.690;11.974;2023-04-10T12:51:50;101157.22;;;12.40;59.85
24825;BME280;12910;57.690;11.974;2023-04-10T12:56:54;101154.84;;;12.51;59.34
24825;BME280;12910;57.690;11.974;2023-04-10T12:59:20;101144.56;;;12.51;59.70
24825;BME280;12910;57.690;11.974;2023-04-10T13:01:45;101142.00;;;12.52;59.24
24825;BME280;12910;57.690;11.974;2023-04-10T13:04:10;101135.88;;;12.44;59.16
24825;BME280;12910;57.690;11.974;2023-04-10T13:06:46;101133.34;;;12.45;57.65
24825;BME280;12910;57.690;11.974;2023-04-10T13:09:13;101124.66;;;12.39;58.71
24825;BME280;12910;57.690;11.974;2023-04-10T13:11:39;101128.88;;;12.35;58.96
24825;BME280;12910;57.690;11.974;2023-04-10T13:14:05;101113.47;;;12.37;59.83
24825;BME280;12910;57.690;11.974;2023-04-10T13:16:30;101120.41;;;12.42;59.44
24825;BME280;12910;57.690;11.974;2023-04-10T13:18:56;101118.75;;;12.46;60.24
24825;BME280;12910;57.690;11.974;2023-04-10T13:21:21;101115.44;;;12.53;61.51